Time;durP1;ratioP1;P1;durP2;ratioP2;P2;SDS_P1;SDS_P2;PMS_P1;PMS_P2;Temp;Humidity;BMP_temperature;BMP_pressure;BME280_temperature;BME280_humidity;BME280_pressure;Samples;Min_cycle;Max_cycle;Signal;HPM_P1;HPM_P2
2021/01/09 00:00:14;;;;;;;13.90;8.10;;;2.30;94.60;;;;;;6341486;22;20094;-78
2021/01/09 00:02:40;;;;;;;21.52;11.68;;;2.30;94.70;;;;;;6340216;22;20019;-78
2021/01/09 00:05:10;;;;;;;14.65;8.65;;;2.30;94.50;;;;;;6340925;22;20147;-78
2021/01/09 00:07:37;;;;;;;12.50;7.22;;;2.30;94.50;;;;;;6312531;22;20441;-78
2021/01/09 00:10:06;;;;;;;13.80;7.95;;;2.30;94.40;;;;;;6340997;22;20130;-77
2021/01/09 00:12:33;;;;;;;13.40;7.25;;;2.40;94.50;;;;;;6340666;22;20029;-78
2021/01/09 00:14:59;;;;;;;13.45;7.43;;;2.40;94.40;;;;;;6342381;22;20094;-78
2021/01/09 00:17:27;;;;;;;14.27;7.90;;;2.40;94.40;;;;;;6339862;22;20019;-78
2021/01/09 00:19:54;;;;;;;12.98;7.68;;;2.50;94.30;;;;;;6339907;22;20488;-78
2021/01/09 00:22:20;;;;;;;14.57;7.70;;;2.50;94.40;;;;;;6341508;22;20023;-78
2021/01/09 00:24:47;;;;;;;13.45;7.68;;;2.50;94.30;;;;;;6340876;22;20148;-76
2021/01/09 00:27:14;;;;;;;14.15;7.72;;;2.40;94.40;;;;;;6341468;22;20097;-78
2021/01/09 00:29:42;;;;;;;13.60;7.60;;;2.40;94.50;;;;;;6340675;22;20070;-78
2021/01/09 00:32:11;;;;;;;13.40;7.60;;;2.40;94.70;;;;;;6321300;22;20054;-78
2021/01/09 00:34:39;;;;;;;15.45;7.55;;;2.50;94.60;;;;;;6346741;22;20098;-77
2021/01/09 00:37:06;;;;;;;14.60;8.77;;;2.50;94.30;;;;;;6342500;22;20057;-78
2021/01/09 00:39:32;;;;;;;13.63;7.95;;;2.60;94.30;;;;;;6342622;22;20144;-78
2021/01/09 00:42:00;;;;;;;14.23;8.15;;;2.70;94.00;;;;;;6343386;22;20070;-78
2021/01/09 00:44:26;;;;;;;15.95;8.43;;;2.70;94.00;;;;;;6341601;22;20148;-78
2021/01/09 00:46:55;;;;;;;14.55;7.75;;;2.60;94.00;;;;;;6344406;22;20097;-78
2021/01/09 00:49:21;;;;;;;13.90;8.20;;;2.70;94.00;;;;;;6343379;22;20019;-78
2021/01/09 00:51:49;;;;;;;15.85;9.32;;;2.60;93.70;;;;;;6344792;22;20026;-77
2021/01/09 00:54:16;;;;;;;17.98;8.35;;;2.60;94.00;;;;;;6343937;22;20094;-77
2021/01/09 00:56:42;;;;;;;16.25;8.88;;;2.60;93.90;;;;;;6342176;22;20075;-78
2021/01/09 00:59:09;;;;;;;15.27;8.30;;;2.60;93.90;;;;;;6342375;22;20388;-78
2021/01/09 01:01:36;;;;;;;13.75;8.23;;;2.50;94.10;;;;;;6344966;22;20099;-78
2021/01/09 01:04:02;;;;;;;15.38;8.02;;;2.50;94.20;;;;;;6342488;22;20030;-77
2021/01/09 01:06:29;;;;;;;14.90;8.20;;;2.60;94.20;;;;;;6347186;22;20050;-78
2021/01/09 01:08:56;;;;;;;13.07;7.72;;;2.50;94.10;;;;;;6342930;22;20073;-77
2021/01/09 01:11:26;;;;;;;14.77;8.38;;;2.50;94.40;;;;;;6345719;22;20019;-77
2021/01/09 01:13:52;;;;;;;13.55;8.23;;;2.40;94.60;;;;;;6316566;22;20053;-78
2021/01/09 01:16:19;;;;;;;15.05;8.48;;;2.40;94.60;;;;;;6346075;22;20047;-77
2021/01/09 01:18:46;;;;;;;15.70;8.43;;;2.40;94.60;;;;;;6343096;22;20098;-77
2021/01/09 01:21:13;;;;;;;15.18;8.35;;;2.40;94.60;;;;;;6341962;22;20041;-77
2021/01/09 01:23:40;;;;;;;17.30;8.73;;;2.40;94.70;;;;;;6340403;22;20053;-77
2021/01/09 01:26:09;;;;;;;15.45;8.20;;;2.30;94.90;;;;;;6348303;22;20038;-77
2021/01/09 01:28:36;;;;;;;12.98;7.80;;;2.30;94.90;;;;;;6347872;22;20511;-77
2021/01/09 01:31:03;;;;;;;12.73;7.47;;;2.30;95.00;;;;;;6344060;22;20127;-77
2021/01/09 01:33:30;;;;;;;13.63;7.82;;;2.40;94.90;;;;;;6309210;22;20479;-77
2021/01/09 01:35:58;;;;;;;13.70;7.93;;;2.40;94.90;;;;;;6335489;22;20105;-77
2021/01/09 01:38:26;;;;;;;13.13;7.70;;;2.30;95.00;;;;;;6308441;22;20094;-77
2021/01/09 01:40:55;;;;;;;14.45;8.27;;;2.30;95.00;;;;;;6335909;22;20094;-77
2021/01/09 01:43:22;;;;;;;13.95;8.00;;;2.40;95.10;;;;;;6335171;22;20096;-76
2021/01/09 01:45:49;;;;;;;13.45;7.82;;;2.40;95.10;;;;;;6335995;22;20105;-76
2021/01/09 01:48:15;;;;;;;13.90;8.18;;;2.40;94.80;;;;;;6337029;22;20025;-77
2021/01/09 01:50:42;;;;;;;13.68;7.95;;;2.40;94.80;;;;;;6341109;22;20408;-76
2021/01/09 01:53:09;;;;;;;15.35;8.23;;;2.40;94.90;;;;;;6341673;22;20074;-76
2021/01/09 01:55:36;;;;;;;15.25;8.48;;;2.40;94.80;;;;;;6346082;22;20038;-76
2021/01/09 01:58:03;;;;;;;12.95;8.10;;;2.40;95.00;;;;;;6341078;22;20075;-77
2021/01/09 02:00:33;;;;;;;14.18;8.13;;;2.40;94.80;;;;;;6337950;22;20098;-76
2021/01/09 02:03:01;;;;;;;15.85;8.05;;;2.40;95.00;;;;;;6338601;22;20352;-76
2021/01/09 02:05:34;;;;;;;14.35;8.50;;;2.40;95.10;;;;;;6339968;22;20411;-76
2021/01/09 02:08:04;;;;;;;13.55;8.23;;;2.40;94.90;;;;;;6339719;22;20038;-76
2021/01/09 02:10:31;;;;;;;13.85;8.20;;;2.40;95.00;;;;;;6340064;22;20019;-76
2021/01/09 02:13:05;;;;;;;14.23;8.13;;;2.40;94.50;;;;;;6338841;22;20086;-77
2021/01/09 02:15:34;;;;;;;14.37;7.90;;;2.40;94.70;;;;;;6309426;22;20094;-77
2021/01/09 02:18:07;;;;;;;14.07;7.93;;;2.30;94.70;;;;;;6337556;22;20241;-77
2021/01/09 02:20:35;;;;;;;14.48;8.32;;;2.30;94.70;;;;;;6336335;22;20344;-76
2021/01/09 02:23:03;;;;;;;13.88;8.20;;;2.20;95.00;;;;;;6308019;22;20070;-76
2021/01/09 02:25:30;;;;;;;13.95;8.00;;;2.20;95.10;;;;;;6338241;22;20089;-77
2021/01/09 02:27:58;;;;;;;14.85;8.43;;;2.20;95.10;;;;;;6342227;22;20118;-77
2021/01/09 02:30:30;;;;;;;14.75;8.18;;;2.20;94.90;;;;;;6338106;22;20015;-77
2021/01/09 02:33:02;;;;;;;15.93;8.48;;;2.20;95.00;;;;;;6344967;22;20078;-77
2021/01/09 02:35:29;;;;;;;15.77;8.60;;;2.20;95.10;;;;;;6345928;22;20461;-77
2021/01/09 02:37:57;;;;;;;14.63;7.97;;;2.20;95.10;;;;;;6345055;22;20062;-77
2021/01/09 02:40:24;;;;;;;15.98;8.15;;;2.30;95.00;;;;;;6351106;22;20038;-77
2021/01/09 02:42:51;;;;;;;13.93;8.05;;;2.30;95.00;;;;;;6346797;22;20070;-77
2021/01/09 02:45:18;;;;;;;14.68;8.65;;;2.30;94.80;;;;;;6343029;22;20393;-77
2021/01/09 02:47:44;;;;;;;14.02;7.55;;;2.40;94.90;;;;;;6342931;22;20071;-77
2021/01/09 02:50:12;;;;;;;15.10;8.18;;;2.40;94.80;;;;;;6341921;22;20513;-77
2021/01/09 02:52:38;;;;;;;14.57;8.23;;;2.40;94.80;;;;;;6343099;22;20030;-76
2021/01/09 02:55:06;;;;;;;16.58;8.55;;;2.40;94.70;;;;;;6342801;22;20026;-77
2021/01/09 02:57:34;;;;;;;15.25;8.45;;;2.40;94.70;;;;;;6344206;22;20061;-77
2021/01/09 03:00:01;;;;;;;15.55;8.10;;;2.50;94.60;;;;;;6345533;22;20092;-77
2021/01/09 03:02:28;;;;;;;13.70;7.80;;;2.60;94.50;;;;;;6348519;22;20449;-77
2021/01/09 03:04:54;;;;;;;12.85;8.38;;;2.60;94.50;;;;;;6349439;22;20058;-78
2021/01/09 03:07:21;;;;;;;14.55;7.80;;;2.70;94.60;;;;;;6349991;22;20046;-77
2021/01/09 03:09:47;;;;;;;14.32;8.00;;;2.70;94.40;;;;;;6348348;22;20057;-77
2021/01/09 03:12:14;;;;;;;14.40;8.25;;;2.70;94.40;;;;;;6349737;22;20053;-78
2021/01/09 03:14:41;;;;;;;13.73;7.43;;;2.70;94.30;;;;;;6348889;22;20111;-77
2021/01/09 03:17:08;;;;;;;14.25;8.48;;;2.80;94.20;;;;;;6346813;22;20086;-77
2021/01/09 03:19:34;;;;;;;16.50;9.13;;;2.80;94.20;;;;;;6324531;22;20072;-78
2021/01/09 03:22:01;;;;;;;16.13;9.13;;;2.80;94.20;;;;;;6343604;22;20091;-76
2021/01/09 03:24:27;;;;;;;16.48;9.02;;;2.80;94.40;;;;;;6343476;22;20097;-77
2021/01/09 03:26:54;;;;;;;17.83;8.35;;;2.80;94.10;;;;;;6338560;22;20586;-77
2021/01/09 03:29:20;;;;;;;15.32;8.30;;;2.80;94.00;;;;;;6338101;22;20025;-77
2021/01/09 03:31:48;;;;;;;15.63;8.70;;;2.80;94.00;;;;;;6338110;22;20512;-76
2021/01/09 03:34:14;;;;;;;15.45;8.02;;;2.90;94.00;;;;;;6342477;22;20031;-77
2021/01/09 03:36:41;;;;;;;15.98;8.25;;;2.80;94.10;;;;;;6344950;22;20763;-76
2021/01/09 03:39:14;;;;;;;14.75;7.82;;;2.80;94.10;;;;;;6344527;22;20074;-77
2021/01/09 03:41:41;;;;;;;12.50;8.07;;;2.80;94.20;;;;;;6344047;22;20019;-77
2021/01/09 03:44:07;;;;;;;13.30;8.00;;;2.80;94.20;;;;;;6345947;22;20095;-77
2021/01/09 03:46:34;;;;;;;14.98;8.38;;;2.80;94.00;;;;;;6341338;22;20093;-77
2021/01/09 03:49:01;;;;;;;13.98;8.10;;;2.80;94.00;;;;;;6346075;22;20101;-77
2021/01/09 03:51:28;;;;;;;16.40;9.15;;;2.80;94.30;;;;;;6348298;22;20067;-76
2021/01/09 03:53:54;;;;;;;13.85;8.15;;;2.80;94.10;;;;;;6348874;22;20042;-78
2021/01/09 03:56:20;;;;;;;14.00;7.93;;;2.90;94.30;;;;;;6347810;22;20105;-77
2021/01/09 03:58:47;;;;;;;13.77;8.25;;;2.90;94.30;;;;;;6350910;22;20093;-77
2021/01/09 04:01:14;;;;;;;15.23;8.75;;;2.80;94.00;;;;;;6342849;22;20109;-77
2021/01/09 04:03:40;;;;;;;14.50;8.32;;;2.80;93.90;;;;;;6342333;22;20026;-77
2021/01/09 04:06:08;;;;;;;13.43;8.20;;;2.80;93.90;;;;;;6342699;22;20075;-76
2021/01/09 04:08:34;;;;;;;14.00;7.72;;;2.80;93.80;;;;;;6340487;22;20093;-77
2021/01/09 04:11:01;;;;;;;12.25;7.70;;;2.80;93.70;;;;;;6339884;22;20038;-77
2021/01/09 04:13:29;;;;;;;15.15;8.55;;;2.80;93.80;;;;;;6345268;22;20070;-77
2021/01/09 04:15:56;;;;;;;14.90;8.15;;;2.80;93.70;;;;;;6346856;22;20045;-76
2021/01/09 04:18:23;;;;;;;14.50;8.38;;;2.80;93.90;;;;;;6344467;22;20102;-77
2021/01/09 04:20:50;;;;;;;14.77;8.38;;;2.80;94.00;;;;;;6346979;22;20054;-77
2021/01/09 04:23:18;;;;;;;14.20;8.40;;;2.70;94.60;;;;;;6347338;22;20043;-77
2021/01/09 04:25:44;;;;;;;15.35;8.20;;;2.60;94.80;;;;;;6345187;22;20053;-77
2021/01/09 04:28:10;;;;;;;14.70;8.32;;;2.50;95.00;;;;;;6350866;22;20042;-77
2021/01/09 04:30:37;;;;;;;12.85;7.43;;;2.50;95.30;;;;;;6355899;22;20038;-78
2021/01/09 04:33:04;;;;;;;14.05;7.90;;;2.40;95.60;;;;;;6345450;22;20148;-77
2021/01/09 04:35:30;;;;;;;13.30;8.30;;;2.30;95.90;;;;;;6344858;22;20049;-77
2021/01/09 04:37:57;;;;;;;14.57;8.65;;;2.40;96.00;;;;;;6345782;22;20097;-78
2021/01/09 04:40:24;;;;;;;13.70;8.27;;;2.40;95.90;;;;;;6342018;22;20159;-77
2021/01/09 04:42:51;;;;;;;15.95;8.63;;;2.50;95.80;;;;;;6337642;22;20019;-78
2021/01/09 04:45:18;;;;;;;15.27;8.50;;;2.50;95.50;;;;;;6345670;22;20561;-78
2021/01/09 04:47:47;;;;;;;14.60;7.65;;;2.50;95.40;;;;;;6344203;22;20083;-77
2021/01/09 04:50:15;;;;;;;15.27;8.32;;;2.40;95.90;;;;;;6338693;22;20019;-77
2021/01/09 04:52:43;;;;;;;13.77;8.25;;;2.40;96.20;;;;;;6337910;22;20093;-77
2021/01/09 04:55:11;;;;;;;13.80;7.85;;;2.50;96.10;;;;;;6341343;22;20015;-77
2021/01/09 04:57:39;;;;;;;15.93;8.93;;;2.40;96.10;;;;;;6349304;22;20090;-77
2021/01/09 05:00:07;;;;;;;16.88;8.50;;;2.40;95.90;;;;;;6349900;22;20089;-77
2021/01/09 05:02:38;;;;;;;11.77;7.65;;;2.40;96.00;;;;;;6338094;22;20137;-77
2021/01/09 05:05:06;;;;;;;14.65;8.30;;;2.30;95.80;;;;;;6338396;22;20023;-77
2021/01/09 05:07:33;;;;;;;14.98;9.02;;;2.30;95.40;;;;;;6338141;22;20023;-77
2021/01/09 05:10:06;;;;;;;14.23;8.30;;;2.30;95.90;;;;;;6337646;22;20014;-77
2021/01/09 05:12:34;;;;;;;16.90;8.93;;;2.20;96.10;;;;;;6338974;22;20019;-77
2021/01/09 05:15:03;;;;;;;15.95;9.45;;;2.30;96.10;;;;;;6337673;22;20098;-77
2021/01/09 05:17:31;;;;;;;16.50;9.68;;;2.20;95.80;;;;;;6338104;22;20144;-77
2021/01/09 05:19:58;;;;;;;16.73;9.68;;;2.30;95.60;;;;;;6337894;22;20026;-77
2021/01/09 05:22:25;;;;;;;18.10;9.77;;;2.30;95.50;;;;;;6336826;22;20532;-77
2021/01/09 05:24:53;;;;;;;16.48;9.57;;;2.30;95.50;;;;;;6333967;22;20029;-77
2021/01/09 05:27:21;;;;;;;15.85;9.68;;;2.30;95.70;;;;;;6334026;22;20015;-77
2021/01/09 05:29:52;;;;;;;15.80;9.38;;;2.40;95.40;;;;;;6334435;22;20022;-77
2021/01/09 05:32:20;;;;;;;15.95;9.00;;;2.40;95.30;;;;;;6308349;22;20019;-77
2021/01/09 05:34:48;;;;;;;14.25;8.77;;;2.50;95.20;;;;;;6336029;22;20094;-77
2021/01/09 05:37:21;;;;;;;15.77;9.57;;;2.50;95.30;;;;;;6335762;22;20122;-77
2021/01/09 05:39:50;;;;;;;16.23;9.10;;;2.50;95.30;;;;;;6335903;22;20452;-76
2021/01/09 05:42:20;;;;;;;15.50;9.02;;;2.60;95.20;;;;;;6309090;22;20117;-76
2021/01/09 05:44:47;;;;;;;15.55;9.30;;;2.60;95.10;;;;;;6335568;22;20101;-76
2021/01/09 05:47:14;;;;;;;15.32;8.50;;;2.70;95.10;;;;;;6337708;22;20128;-77
2021/01/09 05:49:43;;;;;;;27.17;10.05;;;2.70;95.00;;;;;;6336347;22;20022;-76
2021/01/09 05:52:10;;;;;;;14.63;8.57;;;2.70;95.10;;;;;;6337287;22;20019;-77
2021/01/09 05:54:37;;;;;;;14.63;9.25;;;2.70;95.20;;;;;;6336311;22;20022;-76
2021/01/09 05:57:06;;;;;;;16.35;9.50;;;2.70;95.20;;;;;;6336404;22;20019;-77
2021/01/09 05:59:33;;;;;;;15.50;9.80;;;2.70;95.50;;;;;;6337102;22;20143;-76
2021/01/09 06:02:00;;;;;;;14.95;8.85;;;2.70;95.50;;;;;;6338075;22;20023;-76
2021/01/09 06:04:30;;;;;;;15.88;9.65;;;2.60;95.60;;;;;;6338267;22;20109;-77
2021/01/09 06:07:07;;;;;;;15.60;8.88;;;2.70;95.80;;;;;;6337845;22;20019;-77
2021/01/09 06:09:44;;;;;;;14.68;8.55;;;2.60;95.80;;;;;;6311870;22;606024;-77
2021/01/09 06:12:13;;;;;;;15.13;8.57;;;2.60;95.70;;;;;;6340216;22;20093;-77
2021/01/09 06:14:43;;;;;;;16.27;9.30;;;2.60;95.60;;;;;;6336535;22;20090;-77
2021/01/09 06:17:12;;;;;;;15.23;9.23;;;2.70;95.80;;;;;;6336297;22;20068;-77
2021/01/09 06:19:39;;;;;;;15.05;8.77;;;2.70;95.40;;;;;;6336856;22;20053;-77
2021/01/09 06:22:07;;;;;;;15.40;9.23;;;2.70;95.40;;;;;;6336291;22;20015;-77
2021/01/09 06:24:34;;;;;;;16.13;9.20;;;2.70;95.20;;;;;;6336304;22;20019;-77
2021/01/09 06:27:01;;;;;;;16.67;9.38;;;2.70;95.20;;;;;;6337057;22;20374;-77
2021/01/09 06:29:29;;;;;;;16.80;9.20;;;2.70;95.10;;;;;;6336598;22;20531;-76
2021/01/09 06:31:58;;;;;;;17.10;9.25;;;2.80;95.40;;;;;;6337166;22;20488;-77
2021/01/09 06:34:26;;;;;;;16.08;9.05;;;2.70;95.40;;;;;;6336839;22;20046;-77
2021/01/09 06:36:58;;;;;;;14.95;8.98;;;2.70;95.40;;;;;;6336702;22;20093;-76
2021/01/09 06:39:27;;;;;;;16.25;9.43;;;2.70;95.40;;;;;;6335981;22;20046;-77
2021/01/09 06:41:57;;;;;;;15.50;8.98;;;2.70;95.50;;;;;;6337214;22;20383;-77
2021/01/09 06:44:24;;;;;;;15.35;8.77;;;2.70;95.70;;;;;;6335845;22;20344;-76
2021/01/09 06:46:51;;;;;;;16.90;9.25;;;2.70;96.00;;;;;;6339189;22;20097;-77
2021/01/09 06:49:20;;;;;;;15.98;9.05;;;2.60;96.00;;;;;;6339339;22;20102;-77
2021/01/09 06:51:52;;;;;;;16.48;9.23;;;2.70;95.90;;;;;;6339092;22;20097;-76
2021/01/09 06:54:28;;;;;;;16.60;9.45;;;2.60;96.30;;;;;;6337593;22;20021;-77
2021/01/09 06:57:16;;;;;;;19.52;10.73;;;2.60;96.20;;;;;;6337680;22;20090;-76
2021/01/09 06:59:44;;;;;;;31.00;10.60;;;2.60;96.00;;;;;;6337577;22;20090;-76
2021/01/09 07:02:25;;;;;;;17.27;9.95;;;2.70;95.80;;;;;;6336705;22;20030;-77
2021/01/09 07:04:58;;;;;;;16.50;9.77;;;2.70;95.70;;;;;;6337413;22;20030;-76
2021/01/09 07:07:26;;;;;;;15.30;9.50;;;2.80;95.60;;;;;;6339300;22;20034;-76
2021/01/09 07:09:58;;;;;;;16.83;9.57;;;2.80;95.50;;;;;;6338275;22;20094;-76
2021/01/09 07:12:28;;;;;;;17.63;9.88;;;2.80;95.60;;;;;;6340719;22;20026;-77
2021/01/09 07:15:02;;;;;;;16.92;9.43;;;2.80;95.60;;;;;;6342206;22;20018;-77
2021/01/09 07:17:34;;;;;;;15.02;8.95;;;2.80;95.60;;;;;;6348470;22;20023;-77
2021/01/09 07:20:05;;;;;;;16.67;9.55;;;2.90;95.60;;;;;;6344470;22;20093;-76
2021/01/09 07:22:34;;;;;;;16.83;9.15;;;2.80;95.60;;;;;;6345720;22;20107;-76
2021/01/09 07:25:07;;;;;;;15.55;9.18;;;2.80;95.60;;;;;;6346505;22;20053;-77
2021/01/09 07:27:39;;;;;;;15.18;9.07;;;2.80;95.70;;;;;;6344129;22;20805;-77
2021/01/09 07:30:15;;;;;;;15.75;9.05;;;2.80;95.60;;;;;;6344513;22;20110;-76
2021/01/09 07:32:48;;;;;;;15.63;9.13;;;2.80;95.50;;;;;;6341347;22;20022;-77
2021/01/09 07:35:21;;;;;;;17.05;9.30;;;2.70;95.60;;;;;;6343429;22;20068;-76
2021/01/09 07:37:50;;;;;;;15.73;8.45;;;2.70;95.60;;;;;;6344541;22;20102;-77
2021/01/09 07:40:19;;;;;;;16.10;8.77;;;2.80;95.60;;;;;;6343247;22;20093;-77
2021/01/09 07:42:47;;;;;;;15.23;9.20;;;2.80;95.60;;;;;;6341980;22;20042;-76
2021/01/09 07:45:16;;;;;;;16.98;8.95;;;2.80;95.50;;;;;;6341815;22;20084;-76
2021/01/09 07:47:45;;;;;;;16.02;9.48;;;2.80;95.40;;;;;;6341352;22;20038;-76
2021/01/09 07:50:16;;;;;;;15.88;8.98;;;2.70;95.50;;;;;;6341398;22;20043;-77
2021/01/09 07:52:42;;;;;;;16.88;9.43;;;2.80;95.50;;;;;;6341287;22;20075;-76
2021/01/09 07:55:15;;;;;;;15.27;9.40;;;2.80;95.70;;;;;;6341432;22;20118;-76
2021/01/09 07:57:42;;;;;;;15.82;9.48;;;2.70;95.80;;;;;;6342211;22;20093;-77
2021/01/09 08:00:17;;;;;;;18.05;9.40;;;2.70;96.00;;;;;;6344076;22;20046;-77
2021/01/09 08:02:46;;;;;;;14.88;8.85;;;2.80;96.00;;;;;;6338440;22;20023;-77
2021/01/09 08:05:19;;;;;;;14.55;8.65;;;2.80;95.90;;;;;;6338332;22;20060;-77
2021/01/09 08:07:49;;;;;;;17.48;9.27;;;2.80;95.80;;;;;;6340807;22;20015;-78
2021/01/09 08:10:25;;;;;;;16.60;9.40;;;2.80;95.80;;;;;;6339005;22;20042;-76
2021/01/09 08:12:58;;;;;;;15.68;9.18;;;2.90;95.80;;;;;;6339220;22;20019;-76
2021/01/09 08:15:26;;;;;;;16.77;9.60;;;2.90;95.70;;;;;;6338435;22;20440;-76
2021/01/09 08:17:53;;;;;;;16.30;9.65;;;2.90;95.50;;;;;;6338405;22;20468;-76
2021/01/09 08:20:20;;;;;;;14.40;8.93;;;2.90;95.50;;;;;;6338396;22;20042;-76
2021/01/09 08:22:52;;;;;;;15.75;8.75;;;2.90;95.30;;;;;;6338943;22;20508;-76
2021/01/09 08:25:20;;;;;;;17.02;9.27;;;3.10;95.30;;;;;;6342561;22;20029;-76
2021/01/09 08:27:50;;;;;;;15.52;9.07;;;3.00;95.10;;;;;;6333006;22;20026;-76
2021/01/09 08:30:22;;;;;;;15.95;9.27;;;3.10;95.00;;;;;;6347233;22;20384;-76
2021/01/09 08:32:49;;;;;;;16.08;9.38;;;3.10;95.10;;;;;;6316500;22;20365;-76
2021/01/09 08:35:16;;;;;;;15.68;9.55;;;3.10;95.00;;;;;;6348590;22;20106;-76
2021/01/09 08:37:44;;;;;;;16.45;9.73;;;3.10;95.00;;;;;;6346312;22;20114;-76
2021/01/09 08:40:19;;;;;;;17.40;9.68;;;3.10;95.00;;;;;;6340453;22;20061;-76
2021/01/09 08:43:01;;;;;;;16.55;9.52;;;3.10;95.00;;;;;;6338127;22;20022;-77
2021/01/09 08:45:56;;;;;;;18.05;9.98;;;3.10;95.00;;;;;;6339338;22;20094;-76
2021/01/09 08:48:25;;;;;;;16.77;9.63;;;3.10;95.10;;;;;;6339586;22;20027;-77
2021/01/09 08:51:03;;;;;;;17.88;9.63;;;3.10;95.20;;;;;;6339934;22;20019;-77
2021/01/09 08:53:42;;;;;;;17.38;9.82;;;3.10;95.40;;;;;;6336234;22;20027;-76
2021/01/09 08:56:09;;;;;;;16.38;9.23;;;3.10;95.20;;;;;;6335073;22;20371;-76
2021/01/09 08:58:38;;;;;;;15.63;9.38;;;3.00;95.40;;;;;;6335632;22;20023;-76
2021/01/09 09:01:08;;;;;;;15.55;10.00;;;3.20;95.40;;;;;;6335221;22;20025;-76
2021/01/09 09:03:40;;;;;;;15.85;9.48;;;3.00;95.30;;;;;;6335655;22;20171;-76
2021/01/09 09:06:09;;;;;;;16.35;9.43;;;3.10;95.20;;;;;;6335176;22;20042;-77
2021/01/09 09:08:37;;;;;;;17.75;10.30;;;3.10;95.00;;;;;;6334578;22;20393;-76
2021/01/09 09:11:04;;;;;;;18.30;10.80;;;3.20;94.90;;;;;;6335784;22;20023;-76
2021/01/09 09:13:32;;;;;;;17.60;9.85;;;3.20;94.80;;;;;;6335350;22;20067;-78
2021/01/09 09:16:10;;;;;;;16.23;10.00;;;3.20;94.80;;;;;;6335993;22;20094;-76
2021/01/09 09:18:38;;;;;;;16.95;9.98;;;3.20;94.80;;;;;;6335652;22;20098;-77
2021/01/09 09:21:10;;;;;;;17.10;10.50;;;3.20;95.10;;;;;;6335972;22;20061;-75
2021/01/09 09:23:37;;;;;;;20.05;12.20;;;3.30;94.90;;;;;;6334522;22;20053;-77
2021/01/09 09:26:09;;;;;;;18.67;11.57;;;3.40;94.70;;;;;;6334553;22;20546;-76
2021/01/09 09:28:47;;;;;;;18.73;11.63;;;3.40;94.60;;;;;;6334792;22;20089;-76
2021/01/09 09:31:22;;;;;;;20.42;12.27;;;3.50;94.60;;;;;;6337381;22;20082;-79
2021/01/09 09:34:06;;;;;;;20.58;11.52;;;3.50;94.40;;;;;;6335566;22;20105;-76
2021/01/09 09:36:37;;;;;;;22.80;12.80;;;3.50;94.30;;;;;;6341478;22;20095;-82
2021/01/09 09:39:15;;;;;;;21.50;12.32;;;3.60;94.20;;;;;;6345968;22;20065;-79
2021/01/09 09:41:53;;;;;;;21.65;12.45;;;3.60;94.20;;;;;;6341878;22;20064;-78
2021/01/09 09:44:23;;;;;;;22.40;12.55;;;3.60;94.10;;;;;;6338759;22;20772;-79
2021/01/09 09:46:53;;;;;;;22.05;13.55;;;3.60;94.10;;;;;;6336879;22;20445;-78
2021/01/09 09:49:22;;;;;;;21.52;12.50;;;3.60;94.00;;;;;;6337043;22;20027;-78
2021/01/09 09:51:48;;;;;;;21.80;13.75;;;3.60;94.10;;;;;;6336448;22;20097;-79
2021/01/09 09:54:29;;;;;;;22.42;12.93;;;3.70;93.80;;;;;;6339314;22;20093;-78
2021/01/09 09:56:56;;;;;;;24.20;13.60;;;3.60;94.00;;;;;;6338476;22;20437;-79
2021/01/09 09:59:29;;;;;;;21.33;12.80;;;3.70;93.80;;;;;;6337440;22;20078;-79
2021/01/09 10:02:02;;;;;;;23.67;13.77;;;3.80;93.90;;;;;;6337513;22;20019;-78
2021/01/09 10:04:29;;;;;;;23.20;13.75;;;3.80;93.60;;;;;;6337436;22;20030;-78
2021/01/09 10:06:58;;;;;;;23.17;13.85;;;3.80;93.40;;;;;;6338384;22;20019;-78
2021/01/09 10:09:25;;;;;;;22.48;13.07;;;3.60;94.00;;;;;;6339150;22;20101;-78
2021/01/09 10:11:53;;;;;;;23.25;13.73;;;3.60;93.80;;;;;;6336870;22;20029;-79
2021/01/09 10:14:20;;;;;;;21.73;13.00;;;3.70;93.60;;;;;;6340071;22;20112;-78
2021/01/09 10:16:46;;;;;;;22.75;13.60;;;3.70;93.30;;;;;;6338201;22;20019;-78
2021/01/09 10:19:15;;;;;;;23.85;14.18;;;3.80;93.20;;;;;;6336340;22;20098;-79
2021/01/09 10:21:45;;;;;;;20.60;13.43;;;3.90;92.90;;;;;;6309193;22;20514;-79
2021/01/09 10:24:12;;;;;;;22.92;14.38;;;3.90;92.90;;;;;;6339948;22;20445;-78
2021/01/09 10:26:40;;;;;;;25.55;14.80;;;4.00;93.20;;;;;;6339163;22;20101;-79
2021/01/09 10:29:07;;;;;;;25.20;15.57;;;3.80;93.50;;;;;;6336109;22;20333;-79
2021/01/09 10:31:37;;;;;;;26.50;15.57;;;3.80;93.80;;;;;;6336709;22;20101;-79
2021/01/09 10:34:08;;;;;;;24.52;14.57;;;3.80;93.80;;;;;;6335925;22;20416;-78
2021/01/09 10:36:37;;;;;;;24.83;14.55;;;3.90;93.70;;;;;;6336262;22;20097;-78
2021/01/09 10:39:09;;;;;;;24.60;14.55;;;3.90;93.30;;;;;;6336665;22;20073;-78
2021/01/09 10:41:38;;;;;;;24.80;14.48;;;4.00;92.80;;;;;;6339198;22;20022;-79
2021/01/09 10:44:08;;;;;;;23.50;13.82;;;4.00;93.10;;;;;;6339687;22;20026;-78
2021/01/09 10:46:37;;;;;;;24.52;13.85;;;3.90;93.00;;;;;;6339495;22;20015;-78
2021/01/09 10:49:04;;;;;;;23.67;13.63;;;3.90;92.70;;;;;;6337796;22;20025;-78
2021/01/09 10:51:31;;;;;;;24.27;13.48;;;4.00;92.60;;;;;;6335870;22;20015;-78
2021/01/09 10:54:01;;;;;;;23.50;13.88;;;4.10;92.30;;;;;;6335122;22;20015;-79
2021/01/09 10:56:29;;;;;;;24.42;14.10;;;4.30;92.20;;;;;;6334189;22;20067;-79
2021/01/09 10:58:55;;;;;;;21.30;12.95;;;4.20;91.60;;;;;;6334658;22;20018;-78
2021/01/09 11:01:22;;;;;;;17.98;11.40;;;4.30;91.20;;;;;;6334579;22;20574;-79
2021/01/09 11:03:49;;;;;;;19.52;12.07;;;4.40;91.10;;;;;;6334674;22;20022;-79
2021/01/09 11:06:22;;;;;;;20.92;12.65;;;4.40;90.60;;;;;;6334862;22;20015;-79
2021/01/09 11:08:49;;;;;;;22.67;12.55;;;4.30;90.50;;;;;;6335161;22;20444;-79
2021/01/09 11:11:16;;;;;;;19.23;12.32;;;4.20;90.70;;;;;;6334114;22;20121;-80
2021/01/09 11:13:46;;;;;;;19.85;12.30;;;4.30;90.50;;;;;;6335588;22;20096;-79
2021/01/09 11:16:18;;;;;;;22.95;12.00;;;4.40;90.80;;;;;;6335996;22;20019;-79
2021/01/09 11:18:47;;;;;;;18.55;11.70;;;4.40;90.50;;;;;;6333637;22;20022;-79
2021/01/09 11:21:14;;;;;;;20.13;11.77;;;4.50;90.80;;;;;;6335905;22;20448;-80
2021/01/09 11:23:42;;;;;;;18.23;10.43;;;4.40;90.30;;;;;;6310520;22;20022;-79
2021/01/09 11:26:10;;;;;;;19.45;11.15;;;4.40;90.40;;;;;;6337337;22;20065;-79
2021/01/09 11:28:36;;;;;;;19.75;10.82;;;4.20;90.60;;;;;;6336446;22;20085;-81
2021/01/09 11:31:03;;;;;;;19.50;10.55;;;4.10;90.60;;;;;;6347653;22;20082;-86
2021/01/09 11:33:30;;;;;;;26.13;13.57;;;4.10;90.60;;;;;;6348048;22;20118;-84
2021/01/09 11:35:57;;;;;;;20.98;11.23;;;4.00;90.70;;;;;;6338691;22;20023;-79
2021/01/09 11:38:23;;;;;;;20.52;11.15;;;4.10;90.60;;;;;;6344884;22;20143;-84
2021/01/09 11:40:50;;;;;;;20.48;10.98;;;4.00;90.60;;;;;;6345482;22;20093;-87
2021/01/09 11:43:18;;;;;;;20.30;11.60;;;3.90;91.00;;;;;;6320498;22;20030;-90
2021/01/09 11:45:45;;;;;;;19.73;11.23;;;3.90;91.30;;;;;;6318767;22;20070;-90
2021/01/09 11:48:12;;;;;;;17.95;10.32;;;4.10;91.10;;;;;;6312226;22;20471;-86
2021/01/09 11:50:43;;;;;;;17.60;10.13;;;4.30;90.80;;;;;;6336149;22;20089;-83
2021/01/09 11:53:10;;;;;;;19.38;9.90;;;4.40;89.90;;;;;;6336093;22;20098;-83
2021/01/09 11:55:38;;;;;;;17.17;10.27;;;4.40;89.30;;;;;;6333978;22;20101;-83
2021/01/09 11:58:04;;;;;;;23.05;8.48;;;4.50;89.00;;;;;;6334401;22;20130;-77
2021/01/09 12:00:31;;;;;;;24.80;8.25;;;4.80;96.40;;;;;;6332305;22;20016;-74
2021/01/09 12:02:57;;;;;;;17.25;10.15;;;6.40;99.90;;;;;;6333125;22;20102;-75
2021/01/09 12:05:25;;;;;;;15.45;9.23;;;7.20;91.70;;;;;;6333582;22;20354;-89
2021/01/09 12:07:52;;;;;;;14.60;8.80;;;7.20;75.20;;;;;;6334443;22;20063;-74
2021/01/09 12:10:18;;;;;;;14.55;8.60;;;6.70;79.20;;;;;;6335933;22;20535;-90
2021/01/09 12:12:45;;;;;;;14.77;9.07;;;6.40;74.90;;;;;;6335007;22;20148;-81
2021/01/09 12:15:13;;;;;;;16.25;9.75;;;6.30;74.80;;;;;;6334677;22;20022;-88
2021/01/09 12:17:39;;;;;;;15.52;9.05;;;5.90;76.40;;;;;;6308635;22;20019;-88
2021/01/09 12:20:07;;;;;;;15.65;8.95;;;5.70;75.90;;;;;;6338200;22;20097;-88
2021/01/09 12:22:34;;;;;;;14.38;8.65;;;5.50;77.00;;;;;;6340372;22;20349;-89
2021/01/09 12:25:01;;;;;;;15.13;9.02;;;5.60;79.50;;;;;;6340218;22;20535;-86
2021/01/09 12:27:27;;;;;;;16.48;9.35;;;5.40;78.30;;;;;;6336078;22;20015;-88
2021/01/09 12:29:54;;;;;;;16.88;9.63;;;5.20;78.90;;;;;;6336471;22;20057;-89
2021/01/09 12:32:20;;;;;;;13.82;8.73;;;4.80;80.50;;;;;;6336132;22;20351;-87
2021/01/09 12:34:47;;;;;;;18.17;9.60;;;4.50;82.30;;;;;;6336006;22;20025;-86
2021/01/09 12:37:14;;;;;;;16.48;8.80;;;4.50;83.10;;;;;;6335287;22;20555;-88
2021/01/09 12:39:41;;;;;;;18.95;10.68;;;4.70;82.90;;;;;;6336837;22;20090;-93
2021/01/09 12:42:09;;;;;;;19.02;9.98;;;4.70;90.00;;;;;;6337105;22;20589;-94
2021/01/09 12:44:35;;;;;;;15.43;9.65;;;4.90;82.20;;;;;;6340565;22;20042;-89
2021/01/09 12:47:02;;;;;;;19.58;11.10;;;5.00;79.00;;;;;;6340484;22;20074;-92
2021/01/09 12:49:29;;;;;;;16.35;9.20;;;4.90;80.00;;;;;;6310402;22;20097;-93
2021/01/09 12:51:59;;;;;;;14.63;9.02;;;5.20;77.30;;;;;;6336636;22;20456;-94